Time;durP1;ratioP1;P1;durP2;ratioP2;P2;SDS_P1;SDS_P2;PMS_P1;PMS_P2;Temp;Humidity;BMP_temperature;BMP_pressure;BME280_temperature;BME280_humidity;BME280_pressure;Samples;Min_cycle;Max_cycle;Signal;HPM_P1;HPM_P2
2021/06/03 00:04:03;;;;;;;3.57;2.70;;;;;;;13.93;100.00;99337.69;10497724;28;20190;-73
2021/06/03 00:09:23;;;;;;;6.03;2.87;;;;;;;14.06;100.00;99338.69;10495963;28;20179;-73
2021/06/03 00:14:42;;;;;;;4.70;2.60;;;;;;;14.17;100.00;99339.38;10496166;28;20206;-72
2021/06/03 00:20:04;;;;;;;4.43;2.17;;;;;;;14.07;100.00;99343.03;10497325;28;20187;-73
2021/06/03 00:25:24;;;;;;;2.40;1.90;;;;;;;13.98;100.00;99342.00;10496803;28;20182;-73
2021/06/03 00:30:44;;;;;;;4.13;3.43;;;;;;;13.92;100.00;99344.44;10496958;28;20253;-74
2021/06/03 00:36:03;;;;;;;2.20;2.00;;;;;;;13.77;100.00;99337.50;10494277;28;20235;-73
2021/06/03 00:41:22;;;;;;;2.90;2.40;;;;;;;13.69;100.00;99344.34;10497689;28;20250;-73
2021/06/03 00:46:41;;;;;;;2.77;2.50;;;;;;;13.55;100.00;99344.50;10496323;28;20167;-74
2021/06/03 00:52:00;;;;;;;3.10;2.50;;;;;;;13.37;100.00;99340.34;10496134;28;20198;-73
2021/06/03 00:57:19;;;;;;;2.90;1.77;;;;;;;13.32;100.00;99342.81;10495323;28;20211;-74
2021/06/03 01:02:39;;;;;;;3.57;2.97;;;;;;;13.24;100.00;99344.06;10497217;28;20190;-74
2021/06/03 01:08:02;;;;;;;5.87;2.77;;;;;;;13.34;100.00;99348.69;10495695;28;20552;-73
2021/06/03 01:13:52;;;;;;;3.37;2.40;;;;;;;13.42;100.00;99348.22;10496662;28;20178;-73
2021/06/03 01:19:15;;;;;;;2.10;1.90;;;;;;;13.42;100.00;99341.88;10497092;28;20261;-73
2021/06/03 01:24:36;;;;;;;2.40;2.20;;;;;;;13.39;100.00;99357.31;10500002;28;20664;-73
2021/06/03 01:30:07;;;;;;;4.47;2.47;;;;;;;13.32;100.00;99362.16;10504627;28;20178;-73
2021/06/03 01:35:30;;;;;;;2.10;1.93;;;;;;;13.41;100.00;99362.44;10502585;28;20223;-73
2021/06/03 01:40:50;;;;;;;3.33;2.73;;;;;;;13.24;100.00;99366.94;10504201;28;20167;-73
2021/06/03 01:46:10;;;;;;;9.67;3.00;;;;;;;13.15;100.00;99365.88;10504339;28;20174;-74
2021/06/03 01:51:29;;;;;;;2.73;2.47;;;;;;;13.18;100.00;99370.56;10502991;28;20174;-73
2021/06/03 01:56:48;;;;;;;3.83;3.23;;;;;;;12.86;100.00;99375.53;10502438;28;20210;-73
2021/06/03 02:02:07;;;;;;;2.37;2.17;;;;;;;12.65;100.00;99372.97;10503577;28;20170;-73
2021/06/03 02:07:27;;;;;;;3.50;2.70;;;;;;;12.74;100.00;99378.81;10502074;28;20178;-73
2021/06/03 02:12:59;;;;;;;4.27;2.27;;;;;;;12.59;100.00;99380.13;10503446;28;20175;-73
2021/06/03 02:18:20;;;;;;;3.43;3.13;;;;;;;12.44;100.00;99386.91;10503081;28;20191;-73
2021/06/03 02:23:40;;;;;;;2.70;2.50;;;;;;;12.32;100.00;99390.13;10500384;28;20179;-73
2021/06/03 02:28:59;;;;;;;4.27;2.13;;;;;;;12.10;100.00;99399.72;10502708;28;20171;-73
2021/06/03 02:34:19;;;;;;;9.03;3.00;;;;;;;11.96;100.00;99404.50;10499748;28;20222;-73
2021/06/03 02:39:40;;;;;;;2.43;2.10;;;;;;;11.98;100.00;99391.13;10500833;28;20541;-73
2021/06/03 02:44:59;;;;;;;2.87;2.47;;;;;;;11.93;100.00;99389.56;10501250;28;20178;-73
2021/06/03 02:50:21;;;;;;;4.83;3.00;;;;;;;12.01;100.00;99393.84;10500173;28;20179;-73
2021/06/03 02:55:41;;;;;;;4.33;3.17;;;;;;;11.85;100.00;99398.25;10501122;28;20207;-74
2021/06/03 03:01:00;;;;;;;5.33;2.53;;;;;;;11.77;100.00;99404.97;10501253;28;20254;-74
2021/06/03 03:06:20;;;;;;;3.03;2.83;;;;;;;11.57;100.00;99409.38;10499624;28;20254;-73
2021/06/03 03:11:39;;;;;;;3.23;3.03;;;;;;;11.58;100.00;99415.66;10500500;28;20529;-73
2021/06/03 03:16:58;;;;;;;2.70;2.50;;;;;;;11.54;100.00;99423.94;10500233;28;20214;-73
2021/06/03 03:22:17;;;;;;;2.90;2.27;;;;;;;11.46;100.00;99429.84;10499089;28;20250;-73
2021/06/03 03:27:38;;;;;;;4.17;2.67;;;;;;;11.55;100.00;99430.25;10500004;28;20598;-75
2021/06/03 03:32:57;;;;;;;3.10;2.50;;;;;;;11.54;100.00;99426.69;10499410;28;20631;-74
2021/06/03 03:38:19;;;;;;;2.93;2.43;;;;;;;11.67;100.00;99436.09;10497788;28;20210;-75
2021/06/03 03:43:38;;;;;;;4.23;3.13;;;;;;;11.85;100.00;99434.09;10499274;28;20204;-75
2021/06/03 03:48:57;;;;;;;4.73;2.53;;;;;;;11.71;100.00;99436.13;10498411;28;20174;-74
2021/06/03 03:54:16;;;;;;;3.30;2.97;;;;;;;11.78;100.00;99450.66;10497258;28;20202;-75
2021/06/03 03:59:35;;;;;;;3.30;3.10;;;;;;;11.93;100.00;99447.47;10497985;28;20714;-74
2021/06/03 04:04:54;;;;;;;3.87;2.60;;;;;;;11.87;100.00;99455.75;10498633;28;20178;-73
2021/06/03 04:10:16;;;;;;;4.40;3.07;;;;;;;11.94;100.00;99451.00;10497434;28;20722;-76
2021/06/03 04:15:35;;;;;;;4.80;3.37;;;;;;;12.32;100.00;99466.59;10497046;28;20293;-74
2021/06/03 04:20:55;;;;;;;3.73;2.63;;;;;;;12.34;100.00;99465.03;10496688;28;20186;-74
2021/06/03 04:26:14;;;;;;;6.43;3.20;;;;;;;12.40;100.00;99452.38;10498158;28;20171;-73
2021/06/03 04:31:33;;;;;;;2.20;2.00;;;;;;;12.51;100.00;99464.16;10496717;28;20178;-74
2021/06/03 04:36:52;;;;;;;3.60;2.43;;;;;;;12.70;100.00;99471.91;10496037;28;20202;-74
2021/06/03 04:42:11;;;;;;;3.80;3.10;;;;;;;12.88;100.00;99478.13;10497592;28;20539;-73
2021/06/03 04:47:30;;;;;;;4.90;3.50;;;;;;;12.95;100.00;99472.56;10497379;28;20643;-73
2021/06/03 04:52:50;;;;;;;3.37;3.07;;;;;;;13.25;100.00;99479.03;10495231;28;20190;-75
2021/06/03 04:58:09;;;;;;;3.50;3.20;;;;;;;13.50;100.00;99481.56;10495232;28;20198;-74
2021/06/03 05:03:28;;;;;;;3.20;2.90;;;;;;;13.85;100.00;99474.50;10497327;28;20629;-74
2021/06/03 05:08:47;;;;;;;4.13;3.73;;;;;;;14.26;100.00;99483.56;10496064;28;20175;-73
2021/06/03 05:14:05;;;;;;;3.03;2.60;;;;;;;14.69;100.00;99476.28;10497130;28;20202;-74
2021/06/03 05:19:25;;;;;;;4.10;2.73;;;;;;;15.15;100.00;99491.78;10495781;28;20174;-73
2021/06/03 05:24:44;;;;;;;5.13;3.37;;;;;;;15.41;100.00;99487.44;10495022;28;20531;-73
2021/06/03 05:30:07;;;;;;;3.13;2.83;;;;;;;15.48;100.00;99488.09;10496172;28;20531;-73
2021/06/03 05:35:26;;;;;;;5.83;3.80;;;;;;;15.60;100.00;99506.13;10493606;28;20266;-73
2021/06/03 05:40:45;;;;;;;4.23;3.00;;;;;;;15.87;100.00;99515.19;10496317;28;20167;-73
2021/06/03 05:46:04;;;;;;;3.57;2.70;;;;;;;15.90;100.00;99512.34;10496359;28;20179;-74
2021/06/03 05:51:23;;;;;;;5.50;3.83;;;;;;;16.02;100.00;99525.56;10494658;28;20179;-75
2021/06/03 05:56:42;;;;;;;3.97;3.67;;;;;;;16.53;100.00;99533.34;10495619;28;20585;-73
2021/06/03 06:02:06;;;;;;;3.93;3.53;;;;;;;16.91;100.00;99538.84;10495103;28;20186;-74
2021/06/03 06:07:25;;;;;;;3.93;3.00;;;;;;;17.33;100.00;99532.34;10494379;28;20174;-75
2021/06/03 06:12:44;;;;;;;5.93;4.23;;;;;;;17.65;100.00;99535.91;10501942;28;20186;-74
2021/06/03 06:18:04;;;;;;;4.23;3.83;;;;;;;17.84;100.00;99539.84;10497451;28;20206;-74
2021/06/03 06:23:23;;;;;;;4.97;3.20;;;;;;;18.07;100.00;99545.97;10477294;28;20187;-74
2021/06/03 06:28:43;;;;;;;4.47;4.07;;;;;;;18.23;97.24;99551.53;10499982;28;20187;-73
2021/06/03 06:34:02;;;;;;;3.03;2.73;;;;;;;18.45;94.01;99547.72;10502191;28;20230;-75
2021/06/03 06:39:21;;;;;;;4.30;3.70;;;;;;;18.58;90.27;99554.09;10500323;28;20210;-74
2021/06/03 06:44:40;;;;;;;4.73;4.00;;;;;;;19.23;90.07;99551.81;10502406;28;20179;-73
2021/06/03 06:49:59;;;;;;;4.60;3.00;;;;;;;20.10;69.96;99538.53;10501976;28;20637;-73
2021/06/03 06:55:18;;;;;;;4.63;4.13;;;;;;;21.13;64.37;99546.31;10499029;28;20207;-73
2021/06/03 07:00:40;;;;;;;3.93;3.53;;;;;;;21.29;64.03;99543.28;10500414;28;20170;-73
2021/06/03 07:05:59;;;;;;;2.90;2.70;;;;;;;21.57;61.29;99544.97;10498935;28;20182;-73
2021/06/03 07:11:18;;;;;;;6.80;3.60;;;;;;;21.75;58.33;99545.81;10500091;28;20255;-73
2021/06/03 07:16:37;;;;;;;3.83;3.50;;;;;;;22.23;56.93;99553.38;10499418;28;20202;-74
2021/06/03 07:21:56;;;;;;;4.23;3.63;;;;;;;22.31;53.21;99565.88;10499121;28;20171;-74
2021/06/03 07:27:15;;;;;;;4.10;3.20;;;;;;;22.43;54.46;99559.31;10499567;28;20262;-73
2021/06/03 07:32:34;;;;;;;4.30;3.60;;;;;;;23.39;52.26;99561.66;10499947;28;20218;-73
2021/06/03 07:37:54;;;;;;;4.33;3.30;;;;;;;23.35;51.17;99555.44;10497191;28;20225;-73
2021/06/03 07:43:13;;;;;;;5.97;3.73;;;;;;;24.24;49.13;99559.81;10513113;28;20179;-74
2021/06/03 07:48:33;;;;;;;3.33;3.10;;;;;;;24.96;49.50;99551.56;10498666;28;20174;-74
2021/06/03 07:53:52;;;;;;;3.80;3.47;;;;;;;25.27;47.78;99546.22;10496948;28;20591;-75
2021/06/03 07:59:10;;;;;;;3.23;3.00;;;;;;;25.48;46.96;99540.19;10499314;28;20171;-74
2021/06/03 08:04:30;;;;;;;5.37;4.90;;;;;;;25.86;44.02;99537.19;10499042;28;20170;-74
2021/06/03 08:09:48;;;;;;;4.00;3.60;;;;;;;26.58;43.12;99547.38;10497622;28;20637;-74
2021/06/03 08:15:10;;;;;;;3.97;3.57;;;;;;;26.81;41.80;99545.09;10498385;28;20567;-76
2021/06/03 08:20:36;;;;;;;3.37;3.17;;;;;;;27.09;43.34;99546.16;10496225;28;20629;-75
2021/06/03 08:25:56;;;;;;;5.13;3.57;;;;;;;27.50;42.33;99541.88;10497322;28;20178;-74
2021/06/03 08:31:15;;;;;;;4.27;3.87;;;;;;;27.84;40.34;99547.28;10497624;28;20621;-73
2021/06/03 08:36:34;;;;;;;3.97;3.53;;;;;;;28.01;38.62;99547.38;10495349;28;20225;-75
2021/06/03 08:41:55;;;;;;;4.30;3.90;;;;;;;28.17;40.92;99550.28;10497782;28;20641;-74
2021/06/03 08:47:14;;;;;;;4.20;3.87;;;;;;;28.96;38.63;99536.72;10497886;28;20629;-76
2021/06/03 08:52:34;;;;;;;4.20;3.70;;;;;;;29.31;38.11;99544.22;10496306;28;20182;-74
2021/06/03 08:57:53;;;;;;;3.40;3.17;;;;;;;29.76;36.26;99527.97;10496913;28;20206;-75
2021/06/03 09:03:13;;;;;;;3.67;3.37;;;;;;;30.21;35.06;99542.31;10496985;28;20178;-76
2021/06/03 09:08:35;;;;;;;3.60;3.30;;;;;;;29.69;36.82;99539.84;10495989;28;20535;-75
2021/06/03 09:13:57;;;;;;;3.90;3.60;;;;;;;29.76;38.03;99540.09;10497066;28;20211;-74
2021/06/03 09:19:16;;;;;;;3.40;3.20;;;;;;;30.16;35.27;99545.19;10497049;28;20183;-74
2021/06/03 09:24:35;;;;;;;4.10;3.67;;;;;;;30.36;33.86;99548.47;10494683;28;20637;-75
2021/06/03 09:30:01;;;;;;;4.00;3.60;;;;;;;31.64;33.64;99537.34;10496681;28;20175;-76
2021/06/03 09:35:20;;;;;;;3.80;3.50;;;;;;;31.78;33.66;99539.00;10494985;28;20214;-74
2021/06/03 09:40:48;;;;;;;3.90;3.70;;;;;;;32.37;32.45;99546.66;10495513;28;20179;-75
2021/06/03 09:46:07;;;;;;;3.73;3.47;;;;;;;33.19;30.67;99540.63;10501953;28;20216;-76
2021/06/03 09:51:34;;;;;;;4.60;4.20;;;;;;;33.32;30.08;99541.44;10502938;28;20191;-73
2021/06/03 09:56:57;;;;;;;3.83;3.53;;;;;;;33.60;29.88;99530.34;10503258;28;20572;-75
2021/06/03 10:02:20;;;;;;;3.97;3.57;;;;;;;33.76;29.67;99523.59;10502878;28;20167;-74
2021/06/03 10:07:52;;;;;;;4.70;4.37;;;;;;;34.50;28.59;99523.16;10502162;28;20171;-75
2021/06/03 10:13:11;;;;;;;3.80;3.50;;;;;;;35.03;26.75;99519.66;10502331;28;20182;-76
2021/06/03 10:18:31;;;;;;;3.13;2.87;;;;;;;31.93;32.80;99530.06;10502494;28;20661;-75
2021/06/03 10:23:51;;;;;;;3.87;3.57;;;;;;;33.08;28.81;99520.06;10500672;28;20198;-75
2021/06/03 10:29:10;;;;;;;3.77;3.47;;;;;;;33.67;27.64;99509.75;10502717;28;20171;-75
2021/06/03 10:34:30;;;;;;;2.87;2.67;;;;;;;33.58;26.16;99513.00;10501675;28;20226;-76
2021/06/03 10:39:50;;;;;;;3.27;3.07;;;;;;;33.87;25.16;99506.22;10500265;28;20194;-76
2021/06/03 10:45:13;;;;;;;3.87;2.90;;;;;;;34.84;25.73;99507.59;10502210;28;20179;-75
2021/06/03 10:50:38;;;;;;;3.93;3.63;;;;;;;34.64;24.44;99505.44;10499571;28;20653;-76
2021/06/03 10:56:11;;;;;;;3.43;3.23;;;;;;;34.20;24.76;99499.88;10500605;28;20210;-76
2021/06/03 11:01:34;;;;;;;3.23;2.93;;;;;;;33.13;27.84;99510.63;10500549;28;20175;-76
2021/06/03 11:06:53;;;;;;;3.20;3.00;;;;;;;33.93;26.29;99494.72;10499030;28;20182;-74
2021/06/03 11:12:17;;;;;;;3.53;3.23;;;;;;;34.08;24.28;99489.25;10500977;28;20242;-74
2021/06/03 11:17:49;;;;;;;2.90;2.70;;;;;;;34.80;23.66;99478.56;10499019;28;20210;-74
2021/06/03 11:23:30;;;;;;;3.60;3.30;;;;;;;35.40;24.74;99485.69;10498347;28;20633;-74
2021/06/03 11:29:14;;;;;;;3.53;3.00;;;;;;;32.84;25.16;99481.00;10498902;28;20261;-74
2021/06/03 11:34:39;;;;;;;3.40;2.90;;;;;;;32.52;25.92;99479.38;10499432;28;20225;-73
2021/06/03 11:40:10;;;;;;;3.53;3.27;;;;;;;33.37;26.10;99474.19;10498621;28;20539;-74
2021/06/03 11:45:33;;;;;;;3.10;2.90;;;;;;;33.56;26.90;99472.81;10499346;28;20621;-76
2021/06/03 11:50:57;;;;;;;2.70;2.50;;;;;;;34.25;23.75;99467.56;10497943;28;20219;-75
2021/06/03 11:56:19;;;;;;;2.43;2.23;;;;;;;34.75;25.28;99461.53;10498696;28;20206;-75
2021/06/03 12:01:38;;;;;;;2.93;2.53;;;;;;;35.15;22.86;99455.13;10498023;28;20179;-75
2021/06/03 12:06:58;;;;;;;3.20;2.90;;;;;;;35.05;23.20;99454.84;10497489;28;20178;-75
2021/06/03 12:12:31;;;;;;;3.20;3.00;;;;;;;35.11;24.31;99446.13;10498854;28;20194;-76
2021/06/03 12:17:56;;;;;;;2.60;2.40;;;;;;;36.45;22.70;99440.59;10498094;28;20213;-75
2021/06/03 12:23:15;;;;;;;2.37;2.17;;;;;;;36.49;21.92;99441.75;10497170;28;20611;-75
2021/06/03 12:28:35;;;;;;;2.53;2.33;;;;;;;35.07;24.77;99440.00;10498413;28;20170;-75
2021/06/03 12:33:55;;;;;;;2.23;2.13;;;;;;;35.37;22.91;99441.03;10497531;28;20229;-75
2021/06/03 12:39:15;;;;;;;2.80;2.60;;;;;;;32.04;27.18;99439.59;10496774;28;20202;-74
2021/06/03 12:44:34;;;;;;;3.00;2.00;;;;;;;35.08;25.30;99421.50;10496912;28;20649;-74
2021/06/03 12:50:18;;;;;;;2.47;2.27;;;;;;;35.42;24.11;99420.06;10495745;28;20795;-73
2021/06/03 12:55:38;;;;;;;2.63;2.43;;;;;;;33.19;24.31;99426.53;10497436;28;20668;-75
2021/06/03 13:00:57;;;;;;;2.50;2.30;;;;;;;32.83;25.70;99424.53;10497436;28;20536;-74
2021/06/03 13:06:16;;;;;;;2.00;1.90;;;;;;;32.62;27.36;99426.44;10496230;28;20187;-72
2021/06/03 13:11:38;;;;;;;2.70;2.07;;;;;;;32.78;26.15;99411.16;10496337;28;20183;-74
2021/06/03 13:17:06;;;;;;;2.87;2.67;;;;;;;33.55;26.80;99411.31;10495787;28;20202;-74
2021/06/03 13:22:31;;;;;;;2.63;2.30;;;;;;;34.75;25.07;99401.50;10503919;28;20178;-76
2021/06/03 13:27:50;;;;;;;2.13;1.93;;;;;;;33.23;26.24;99400.53;10505271;28;20178;-74
2021/06/03 13:33:21;;;;;;;2.40;2.10;;;;;;;32.54;29.06;99405.53;10503731;28;20222;-75
2021/06/03 13:38:49;;;;;;;2.73;2.53;;;;;;;32.00;29.40;99393.56;10502978;28;20566;-76
2021/06/03 13:44:09;;;;;;;2.63;2.43;;;;;;;34.03;27.33;99382.34;10504691;28;20174;-75
2021/06/03 13:49:31;;;;;;;2.93;2.73;;;;;;;31.66;31.07;99386.00;10503496;28;20202;-76
2021/06/03 13:54:51;;;;;;;3.30;2.77;;;;;;;33.07;28.65;99376.69;10502828;28;20206;-74
2021/06/03 14:00:10;;;;;;;3.07;2.87;;;;;;;32.34;29.33;99383.28;10504251;28;20171;-75
2021/06/03 14:05:30;;;;;;;2.33;2.13;;;;;;;33.17;29.82;99374.97;10502716;28;20178;-75
2021/06/03 14:11:26;;;;;;;2.70;2.50;;;;;;;32.65;28.21;99362.63;10503554;28;20559;-75
2021/06/03 14:16:56;;;;;;;2.03;1.93;;;;;;;33.61;26.19;99363.50;10502982;28;20214;-74
2021/06/03 14:22:22;;;;;;;2.77;2.57;;;;;;;34.35;26.16;99352.28;10501610;28;20186;-76
2021/06/03 14:27:45;;;;;;;2.70;2.50;;;;;;;33.86;26.30;99356.22;10503019;28;20166;-76
2021/06/03 14:33:06;;;;;;;3.50;2.53;;;;;;;33.29;26.34;99354.25;10501270;28;20227;-76
2021/06/03 14:38:25;;;;;;;2.40;2.00;;;;;;;33.37;25.63;99352.28;10500621;28;20202;-75
2021/06/03 14:43:44;;;;;;;2.23;2.13;;;;;;;33.34;25.68;99350.53;10502356;28;20556;-74
2021/06/03 14:49:03;;;;;;;2.90;2.70;;;;;;;33.49;25.77;99345.03;10502014;28;20210;-74
2021/06/03 14:54:22;;;;;;;3.00;2.70;;;;;;;31.46;28.56;99345.88;10500707;28;20601;-74
2021/06/03 14:59:42;;;;;;;2.50;2.20;;;;;;;31.59;28.25;99346.00;10501552;28;20186;-74
2021/06/03 15:05:01;;;;;;;2.60;2.40;;;;;;;30.89;29.85;99334.81;10501612;28;20178;-74
2021/06/03 15:10:23;;;;;;;2.73;2.53;;;;;;;30.88;29.25;99338.94;10500009;28;20217;-73
2021/06/03 15:15:42;;;;;;;2.77;2.57;;;;;;;31.07;28.89;99334.16;10500984;28;20661;-75
2021/06/03 15:21:04;;;;;;;2.13;2.03;;;;;;;29.60;29.78;99331.03;10499648;28;20178;-74
2021/06/03 15:26:24;;;;;;;2.93;2.57;;;;;;;29.96;29.44;99323.41;10499736;28;20171;-74
2021/06/03 15:31:43;;;;;;;3.13;2.93;;;;;;;29.47;30.87;99324.38;10500407;28;20198;-73
2021/06/03 15:37:02;;;;;;;2.60;2.40;;;;;;;30.27;30.78;99321.63;10498490;28;20214;-75
2021/06/03 15:42:22;;;;;;;2.60;2.40;;;;;;;31.03;29.33;99310.94;10499731;28;20179;-74
2021/06/03 15:47:43;;;;;;;3.20;3.00;;;;;;;31.89;28.81;99318.94;10499662;28;20171;-74
2021/06/03 15:53:03;;;;;;;2.73;2.53;;;;;;;30.87;30.12;99309.78;10511475;28;20203;-75
2021/06/03 15:58:22;;;;;;;3.67;2.30;;;;;;;30.93;28.21;99318.25;10498571;28;20202;-75
2021/06/03 16:03:41;;;;;;;2.60;2.40;;;;;;;31.43;28.96;99315.63;10499208;28;20182;-76
2021/06/03 16:09:00;;;;;;;8.90;6.83;;;;;;;31.19;28.61;99304.28;10497692;28;20179;-73
2021/06/03 16:14:19;;;;;;;6.23;5.47;;;;;;;30.78;30.44;99315.03;10498670;28;20199;-75
2021/06/03 16:19:38;;;;;;;2.53;2.33;;;;;;;30.79;30.60;99314.50;10498618;28;20186;-75
2021/06/03 16:24:57;;;;;;;2.60;2.40;;;;;;;30.10;30.16;99308.84;10497080;28;20249;-75
2021/06/03 16:30:20;;;;;;;2.10;1.90;;;;;;;28.90;33.83;99320.63;10498044;28;20246;-75
2021/06/03 16:35:40;;;;;;;2.80;2.57;;;;;;;28.70;34.28;99330.16;10496027;28;20222;-73
2021/06/03 16:40:59;;;;;;;2.40;2.20;;;;;;;27.09;41.50;99325.81;10497945;28;20317;-73
2021/06/03 16:46:19;;;;;;;3.03;2.80;;;;;;;26.65;44.55;99333.19;10497673;28;20179;-75
2021/06/03 16:51:39;;;;;;;3.20;3.00;;;;;;;26.12;47.57;99346.28;10509761;28;20202;-74
2021/06/03 16:56:58;;;;;;;2.97;2.50;;;;;;;25.77;48.80;99342.81;10495417;28;20213;-75
2021/06/03 17:02:20;;;;;;;2.67;2.47;;;;;;;25.67;49.98;99344.22;10497653;28;20178;-73
2021/06/03 17:07:39;;;;;;;2.60;2.40;;;;;;;25.48;51.84;99340.13;10496224;28;20633;-73
2021/06/03 17:12:59;;;;;;;2.80;2.60;;;;;;;25.32;53.29;99340.69;10497170;28;20287;-75
2021/06/03 17:18:20;;;;;;;3.70;2.20;;;;;;;25.19;54.06;99348.72;10496719;28;20228;-75
2021/06/03 17:23:40;;;;;;;3.23;2.93;;;;;;;24.62;55.83;99360.09;10494710;28;20681;-74
2021/06/03 17:28:59;;;;;;;2.50;2.30;;;;;;;24.44;56.11;99361.06;10496929;28;20202;-74
2021/06/03 17:34:18;;;;;;;3.30;3.00;;;;;;;24.16;55.68;99361.81;10496463;28;20230;-75
2021/06/03 17:39:37;;;;;;;2.53;2.30;;;;;;;23.96;55.75;99367.31;10495482;28;20622;-73
2021/06/03 17:44:55;;;;;;;3.93;2.67;;;;;;;23.92;55.67;99358.28;10496614;28;20254;-75
2021/06/03 17:50:17;;;;;;;2.30;2.10;;;;;;;23.88;55.80;99368.97;10496604;28;20653;-73
2021/06/03 17:55:37;;;;;;;2.20;1.90;;;;;;;23.78;56.28;99370.28;10496268;28;20735;-74
2021/06/03 18:00:56;;;;;;;2.90;2.20;;;;;;;23.58;56.77;99378.53;10496206;28;20179;-73
2021/06/03 18:06:16;;;;;;;3.40;3.10;;;;;;;23.60;57.55;99376.00;10499142;28;20178;-74
2021/06/03 18:11:35;;;;;;;3.30;2.43;;;;;;;23.75;56.72;99370.47;10502569;28;20175;-74
2021/06/03 18:16:54;;;;;;;3.10;2.90;;;;;;;23.73;56.29;99370.94;10503384;28;20206;-75
2021/06/03 18:22:13;;;;;;;2.70;2.50;;;;;;;23.60;57.21;99378.81;10501935;28;20182;-74
2021/06/03 18:27:32;;;;;;;2.90;2.70;;;;;;;23.67;55.96;99366.44;10503140;28;20182;-73
2021/06/03 18:32:56;;;;;;;2.20;2.00;;;;;;;23.45;56.11;99375.19;10502576;28;20297;-73
2021/06/03 18:38:17;;;;;;;5.80;3.00;;;;;;;23.44;57.13;99362.41;10500873;28;20206;-73
2021/06/03 18:43:37;;;;;;;3.47;2.70;;;;;;;23.50;56.83;99373.75;10502424;28;20202;-73
2021/06/03 18:48:56;;;;;;;1.83;1.73;;;;;;;23.38;57.71;99383.22;10502018;28;20198;-73
2021/06/03 18:54:16;;;;;;;3.77;1.90;;;;;;;23.41;58.06;99397.06;10500648;28;22091;-73
2021/06/03 18:59:35;;;;;;;2.57;2.37;;;;;;;23.37;58.26;99404.13;10501685;28;20183;-73
2021/06/03 19:04:55;;;;;;;2.80;2.60;;;;;;;23.32;58.73;99407.56;10501786;28;20186;-73
2021/06/03 19:10:20;;;;;;;2.43;2.30;;;;;;;23.25;59.30;99401.53;10500053;28;20587;-73
2021/06/03 19:15:41;;;;;;;2.50;2.30;;;;;;;23.28;60.34;99409.00;10500109;28;20202;-73
2021/06/03 19:21:02;;;;;;;3.40;2.10;;;;;;;23.11;60.13;99411.44;10499487;28;20170;-74
2021/06/03 19:26:21;;;;;;;2.13;2.03;;;;;;;23.03;59.97;99417.81;10500611;28;20186;-73
2021/06/03 19:31:41;;;;;;;2.27;2.07;;;;;;;23.00;59.61;99419.56;10500066;28;20250;-73
2021/06/03 19:37:00;;;;;;;1.50;1.40;;;;;;;23.02;59.23;99430.31;10498400;28;20569;-73
2021/06/03 19:42:19;;;;;;;4.23;2.10;;;;;;;23.03;59.39;99429.06;10498972;28;20171;-73
2021/06/03 19:47:38;;;;;;;3.17;2.67;;;;;;;22.94;61.53;99434.72;10499783;28;20190;-73
2021/06/03 19:52:57;;;;;;;3.60;3.30;;;;;;;22.66;61.93;99427.66;10498215;28;20210;-73
2021/06/03 19:58:17;;;;;;;3.03;2.37;;;;;;;22.54;63.54;99439.81;10498568;28;20230;-73
2021/06/03 20:03:37;;;;;;;2.90;2.17;;;;;;;22.28;63.77;99438.59;10499104;28;20171;-73
2021/06/03 20:08:56;;;;;;;2.33;2.03;;;;;;;22.09;65.15;99448.25;10497616;28;20175;-73
2021/06/03 20:14:15;;;;;;;2.80;2.60;;;;;;;21.85;66.57;99452.94;10498762;28;20187;-73
2021/06/03 20:19:34;;;;;;;3.20;2.53;;;;;;;21.69;68.76;99449.63;10498691;28;20171;-75
2021/06/03 20:24:53;;;;;;;3.03;2.80;;;;;;;21.45;69.91;99451.41;10497119;28;20174;-75
2021/06/03 20:30:14;;;;;;;5.67;2.70;;;;;;;21.16;71.69;99453.06;10496350;28;20171;-75
2021/06/03 20:35:34;;;;;;;2.60;2.40;;;;;;;20.87;73.88;99458.22;10496076;28;20230;-74
2021/06/03 20:40:55;;;;;;;7.90;2.40;;;;;;;20.83;75.36;99465.19;10497909;28;20175;-75
2021/06/03 20:46:15;;;;;;;2.90;2.70;;;;;;;20.76;76.75;99466.22;10497627;28;20170;-73
2021/06/03 20:51:34;;;;;;;3.00;2.50;;;;;;;20.62;78.54;99472.34;10496271;28;20561;-75
2021/06/03 20:56:53;;;;;;;2.67;2.47;;;;;;;20.58;80.23;99468.91;10497033;28;20198;-74
2021/06/03 21:02:12;;;;;;;3.00;2.63;;;;;;;20.44;81.33;99469.44;10497647;28;20171;-73
2021/06/03 21:07:31;;;;;;;3.03;2.70;;;;;;;20.49;81.65;99463.25;10496336;28;20644;-74
2021/06/03 21:12:51;;;;;;;2.80;2.60;;;;;;;20.53;82.32;99468.72;10497356;28;20163;-73
2021/06/03 21:18:10;;;;;;;2.47;2.23;;;;;;;20.48;82.92;99469.28;10495841;28;20664;-74
2021/06/03 21:23:30;;;;;;;3.83;3.37;;;;;;;20.42;83.95;99460.75;10495877;28;20170;-74
2021/06/03 21:28:49;;;;;;;3.00;2.70;;;;;;;20.25;84.84;99473.34;10496927;28;20629;-74
2021/06/03 21:34:07;;;;;;;2.93;2.73;;;;;;;20.23;83.79;99470.22;10496336;28;20736;-75
2021/06/03 21:39:26;;;;;;;3.73;3.37;;;;;;;20.24;84.06;99462.59;10497018;28;20206;-75
2021/06/03 21:44:45;;;;;;;3.53;3.03;;;;;;;20.24;85.99;99469.00;10504746;28;20202;-73
2021/06/03 21:50:07;;;;;;;3.70;3.40;;;;;;;20.18;86.45;99473.59;10503574;28;20186;-73
2021/06/03 21:55:27;;;;;;;3.80;3.30;;;;;;;20.11;86.23;99476.63;10502851;28;20210;-75
2021/06/03 22:00:49;;;;;;;3.07;2.80;;;;;;;20.23;88.29;99473.00;10504015;28;20178;-73
2021/06/03 22:06:09;;;;;;;3.43;2.80;;;;;;;20.05;89.59;99474.88;10502710;28;20597;-76
2021/06/03 22:11:29;;;;;;;3.27;2.97;;;;;;;19.86;92.83;99473.13;10502535;28;20641;-75
2021/06/03 22:16:48;;;;;;;4.13;2.80;;;;;;;19.82;94.00;99463.31;10502173;28;20207;-75
2021/06/03 22:22:10;;;;;;;4.67;3.40;;;;;;;19.85;94.98;99465.22;10501912;28;20211;-74
2021/06/03 22:27:29;;;;;;;3.77;3.00;;;;;;;19.75;97.25;99455.19;10503305;28;20175;-75
2021/06/03 22:32:48;;;;;;;3.07;2.80;;;;;;;19.75;97.62;99469.91;10502749;28;20218;-75
2021/06/03 22:38:09;;;;;;;4.33;3.67;;;;;;;19.74;97.84;99462.00;10500913;28;20668;-76
2021/06/03 22:43:29;;;;;;;3.47;2.80;;;;;;;19.64;99.24;99463.94;10501728;28;20171;-74
2021/06/03 22:48:49;;;;;;;2.93;2.73;;;;;;;19.66;100.00;99463.47;10501229;28;20198;-75
2021/06/03 22:54:15;;;;;;;3.53;3.10;;;;;;;19.72;100.00;99461.66;10498655;28;20205;-74
2021/06/03 22:59:34;;;;;;;4.00;3.60;;;;;;;19.69;100.00;99466.16;10501941;28;20250;-75
2021/06/03 23:04:54;;;;;;;3.83;3.60;;;;;;;19.42;100.00;99465.09;10501804;28;20171;-74
2021/06/03 23:10:15;;;;;;;2.97;2.73;;;;;;;19.35;100.00;99468.88;10500200;28;20269;-74
2021/06/03 23:15:35;;;;;;;5.60;3.50;;;;;;;19.31;100.00;99461.84;10501092;28;20222;-75
2021/06/03 23:20:54;;;;;;;4.23;3.27;;;;;;;19.06;100.00;99469.44;10499843;28;20186;-74
2021/06/03 23:26:12;;;;;;;3.83;3.40;;;;;;;19.07;100.00;99474.56;10500786;28;20171;-73
2021/06/03 23:31:33;;;;;;;4.10;3.43;;;;;;;19.16;100.00;99476.72;10500726;28;20537;-74
2021/06/03 23:36:52;;;;;;;2.87;2.60;;;;;;;19.05;100.00;99463.09;10498732;28;20583;-73
2021/06/03 23:42:11;;;;;;;8.30;3.70;;;;;;;19.09;100.00;99474.91;10499222;28;20625;-73
2021/06/03 23:47:29;;;;;;;4.70;3.90;;;;;;;18.99;100.00;99462.06;10499923;28;20648;-73
2021/06/03 23:52:49;;;;;;;2.63;2.43;;;;;;;18.97;100.00;99470.13;10497548;28;20175;-73
2021/06/03 23:58:08;;;;;;;2.83;2.60;;;;;;;18.85;100.00;99465.31;10498945;28;20206;-74
